createdAt,value
2022-11-01T00:04:24.261Z,100.00
2022-11-01T00:09:31.644Z,100.00
2022-11-01T00:14:36.538Z,100.00
2022-11-01T00:19:44.924Z,100.00
2022-11-01T00:24:54.850Z,100.00
2022-11-01T00:29:59.943Z,100.00
2022-11-01T00:35:04.704Z,100.00
2022-11-01T00:40:13.669Z,100.00
2022-11-01T00:45:19.075Z,100.00
2022-11-01T00:50:24.276Z,100.00
2022-11-01T00:55:34.118Z,100.00
2022-11-01T01:00:38.954Z,100.00
2022-11-01T01:05:43.707Z,100.00
2022-11-01T01:10:52.190Z,100.00
2022-11-01T01:15:57.508Z,100.00
2022-11-01T01:21:06.342Z,100.00
2022-11-01T01:26:14.525Z,100.00
2022-11-01T01:31:19.354Z,100.00
2022-11-01T01:36:24.106Z,100.00
2022-11-01T01:41:43.967Z,100.00
2022-11-01T01:46:48.829Z,100.00
2022-11-01T01:51:53.717Z,100.00
2022-11-01T01:57:01.852Z,100.00
2022-11-01T02:02:06.874Z,100.00
2022-11-01T02:07:12.890Z,100.00
2022-11-01T02:12:20.729Z,100.00
2022-11-01T02:17:33.585Z,100.00
2022-11-01T02:22:56.642Z,100.00
2022-11-01T02:28:23.133Z,100.00
2022-11-01T02:33:37.193Z,100.00
2022-11-01T02:38:49.880Z,100.00
2022-11-01T02:43:58.969Z,100.00
2022-11-01T02:49:07.296Z,100.00
2022-11-01T02:54:13.590Z,100.00
2022-11-01T02:59:22.700Z,100.00
2022-11-01T03:04:30.261Z,100.00
2022-11-01T03:09:36.056Z,100.00
2022-11-01T03:14:51.700Z,100.00
2022-11-01T03:20:08.629Z,100.00
2022-11-01T03:25:37.463Z,100.00
2022-11-01T03:30:45.734Z,100.00
2022-11-01T03:35:57.069Z,100.00
2022-11-01T03:41:06.462Z,100.00
2022-11-01T03:46:12.475Z,100.00
2022-11-01T03:51:20.066Z,100.00
2022-11-01T03:56:24.934Z,100.00
2022-11-01T04:01:29.852Z,100.00
2022-11-01T04:06:37.382Z,100.00
2022-11-01T04:11:42.148Z,100.00
2022-11-01T04:16:59.857Z,100.00
2022-11-01T04:22:07.530Z,100.00
2022-11-01T04:27:13.162Z,100.00
2022-11-01T04:32:18.071Z,100.00
2022-11-01T04:37:25.658Z,100.00
2022-11-01T04:42:30.690Z,100.00
2022-11-01T04:47:35.598Z,100.00
2022-11-01T04:52:43.072Z,100.00
2022-11-01T04:57:47.918Z,100.00
2022-11-01T05:02:53.540Z,100.00
2022-11-01T05:08:05.386Z,100.00
2022-11-01T05:13:11.017Z,100.00
2022-11-01T05:18:15.948Z,100.00
2022-11-01T05:23:23.479Z,100.00
2022-11-01T05:28:28.277Z,100.00
2022-11-01T05:33:33.423Z,100.00
2022-11-01T05:38:40.813Z,100.00
2022-11-01T05:43:45.721Z,100.00
2022-11-01T05:48:52.184Z,100.00
2022-11-01T05:54:00.148Z,100.00
2022-11-01T05:59:08.212Z,100.00
2022-11-01T06:04:13.413Z,100.00
2022-11-01T06:09:20.887Z,100.00
2022-11-01T06:14:25.863Z,100.00
2022-11-01T06:19:31.583Z,100.00
2022-11-01T06:24:39.370Z,100.00
2022-11-01T06:29:44.250Z,100.00
2022-11-01T06:34:49.176Z,100.00
2022-11-01T06:39:56.586Z,100.00
2022-11-01T06:45:01.660Z,100.00
2022-11-01T06:50:08.045Z,100.00
2022-11-01T06:55:16.967Z,100.00
2022-11-01T07:00:23.105Z,100.00
2022-11-01T07:05:30.373Z,100.00
2022-11-01T07:10:43.905Z,100.00
2022-11-01T07:15:51.095Z,100.00
2022-11-01T07:20:55.811Z,100.00
2022-11-01T07:26:03.493Z,100.00
2022-11-01T07:31:08.651Z,100.00
2022-11-01T07:36:13.943Z,100.00
2022-11-01T07:41:21.440Z,100.00
2022-11-01T07:46:26.380Z,100.00
2022-11-01T07:51:31.284Z,100.00
2022-11-01T07:56:40.992Z,100.00
2022-11-01T08:01:45.923Z,100.00
2022-11-01T08:06:52.213Z,100.00
2022-11-01T08:12:00.065Z,100.00
2022-11-01T08:17:05.049Z,100.00
2022-11-01T08:22:09.778Z,100.00
2022-11-01T08:27:20.062Z,100.00
2022-11-01T08:32:24.979Z,100.00
2022-11-01T08:37:29.805Z,100.00
2022-11-01T08:42:37.186Z,100.00
2022-11-01T08:47:42.195Z,100.00
2022-11-01T08:52:47.329Z,100.00
2022-11-01T08:57:54.792Z,100.00
2022-11-01T09:03:00.019Z,100.00
2022-11-01T09:08:07.524Z,100.00
2022-11-01T09:13:15.357Z,100.00
2022-11-01T09:18:20.749Z,100.00
2022-11-01T09:23:26.082Z,100.00
2022-11-01T09:28:34.889Z,100.00
2022-11-01T09:33:40.085Z,100.00
2022-11-01T09:38:47.167Z,100.00
2022-11-01T09:43:57.242Z,100.00
2022-11-01T09:49:04.254Z,100.00
2022-11-01T09:54:09.615Z,100.00
2022-11-01T09:59:29.293Z,100.00
2022-11-01T10:05:03.311Z,100.00
2022-11-01T10:10:29.918Z,100.00
2022-11-01T10:15:52.245Z,100.00
2022-11-01T10:21:00.137Z,100.00
2022-11-01T10:26:07.067Z,100.00
2022-11-01T10:31:18.656Z,100.00
2022-11-01T10:36:31.161Z,100.00
2022-11-01T10:41:44.950Z,100.00
2022-11-01T10:46:55.660Z,100.00
2022-11-01T10:52:09.306Z,100.00
2022-11-01T10:57:20.880Z,100.00
2022-11-01T11:02:34.541Z,100.00
2022-11-01T11:07:39.427Z,100.00
2022-11-01T11:12:44.957Z,100.00
2022-11-01T11:17:59.723Z,100.00
2022-11-01T11:23:08.050Z,100.00
2022-11-01T11:28:26.834Z,100.00
2022-11-01T11:33:41.661Z,100.00
2022-11-01T11:38:48.796Z,100.00
2022-11-01T11:43:55.903Z,100.00
2022-11-01T11:49:04.515Z,100.00
2022-11-01T11:54:26.070Z,100.00
2022-11-01T11:59:33.873Z,100.00
2022-11-01T12:04:49.501Z,100.00
2022-11-01T12:09:54.566Z,100.00
2022-11-01T12:15:02.250Z,100.00
2022-11-01T12:20:20.426Z,99.78
2022-11-01T12:25:27.343Z,98.73
2022-11-01T12:30:36.417Z,98.66
2022-11-01T12:35:45.868Z,97.97
2022-11-01T12:40:54.954Z,98.14
2022-11-01T12:46:04.948Z,98.16
2022-11-01T12:51:19.544Z,99.17
2022-11-01T12:56:24.760Z,97.46
2022-11-01T13:01:38.099Z,98.55
2022-11-01T13:06:59.971Z,97.84
2022-11-01T13:12:13.509Z,98.95
2022-11-01T13:17:28.913Z,100.00
2022-11-01T13:22:47.513Z,100.00
2022-11-01T13:28:07.083Z,99.25
2022-11-01T13:33:26.173Z,100.00
2022-11-01T13:38:42.767Z,100.00
2022-11-01T13:43:52.313Z,100.00
2022-11-01T13:49:24.138Z,100.00
2022-11-01T13:54:41.356Z,100.00
2022-11-01T13:59:55.574Z,100.00
2022-11-01T14:05:01.725Z,100.00
2022-11-01T14:10:53.263Z,100.00
2022-11-01T14:16:29.038Z,100.00
2022-11-01T14:21:43.629Z,100.00
2022-11-01T14:27:09.143Z,100.00
2022-11-01T14:32:19.235Z,100.00
2022-11-01T14:37:29.511Z,100.00
2022-11-01T14:42:47.582Z,100.00
2022-11-01T14:47:56.416Z,100.00
2022-11-01T14:53:12.431Z,100.00
2022-11-01T14:58:26.666Z,100.00
2022-11-01T15:03:37.847Z,100.00
2022-11-01T15:08:44.477Z,100.00
2022-11-01T15:13:53.396Z,100.00
2022-11-01T15:19:01.054Z,100.00
2022-11-01T15:24:08.306Z,100.00
2022-11-01T15:29:20.112Z,100.00
2022-11-01T15:34:30.125Z,100.00
2022-11-01T15:39:38.894Z,100.00
2022-11-01T15:44:47.866Z,100.00
2022-11-01T15:49:58.030Z,100.00
2022-11-01T15:55:09.723Z,100.00
2022-11-01T16:00:35.066Z,100.00
2022-11-01T16:05:45.625Z,100.00
2022-11-01T16:10:50.576Z,100.00
2022-11-01T16:16:10.415Z,100.00
2022-11-01T16:21:29.929Z,100.00
2022-11-01T16:26:34.853Z,100.00
2022-11-01T16:31:43.312Z,100.00
2022-11-01T16:36:48.347Z,100.00
2022-11-01T16:41:55.810Z,100.00
2022-11-01T16:47:03.347Z,100.00
2022-11-01T16:52:13.524Z,100.00
2022-11-01T16:57:27.629Z,100.00
2022-11-01T17:02:39.140Z,100.00
2022-11-01T17:07:44.124Z,100.00
2022-11-01T17:12:49.770Z,100.00
2022-11-01T17:17:57.640Z,100.00
2022-11-01T17:23:02.800Z,100.00
2022-11-01T17:28:08.132Z,100.00
2022-11-01T17:33:16.889Z,100.00
2022-11-01T17:38:30.211Z,100.00
2022-11-01T17:43:35.629Z,100.00
2022-11-01T17:48:43.016Z,100.00
2022-11-01T17:53:48.819Z,100.00
2022-11-01T17:58:54.039Z,100.00
2022-11-01T18:04:01.507Z,100.00
2022-11-01T18:09:20.960Z,100.00
2022-11-01T18:14:42.347Z,100.00
2022-11-01T18:19:59.536Z,100.00
2022-11-01T18:25:08.152Z,100.00
2022-11-01T18:30:18.865Z,100.00
2022-11-01T18:35:33.238Z,100.00
2022-11-01T18:40:52.341Z,100.00
2022-11-01T18:46:23.443Z,100.00
2022-11-01T18:51:29.740Z,100.00
2022-11-01T18:56:34.697Z,100.00
2022-11-01T19:01:40.900Z,100.00
2022-11-01T19:06:48.825Z,100.00
2022-11-01T19:12:01.864Z,100.00
2022-11-01T19:17:08.640Z,100.00
2022-11-01T19:22:34.340Z,100.00
2022-11-01T19:27:39.536Z,100.00
2022-11-01T19:32:44.982Z,100.00
2022-11-01T19:37:58.612Z,100.00
2022-11-01T19:43:14.446Z,100.00
2022-11-01T19:48:24.846Z,100.00
2022-11-01T19:53:42.126Z,100.00
2022-11-01T19:58:51.939Z,100.00
2022-11-01T20:04:00.537Z,100.00
2022-11-01T20:09:14.667Z,100.00
2022-11-01T20:14:20.419Z,100.00
2022-11-01T20:19:28.968Z,100.00
2022-11-01T20:24:37.510Z,100.00
2022-11-01T20:29:42.896Z,100.00
2022-11-01T20:34:52.925Z,100.00
2022-11-01T20:40:05.987Z,100.00
2022-11-01T20:45:14.106Z,100.00
2022-11-01T20:50:22.833Z,100.00
2022-11-01T20:55:33.558Z,100.00
2022-11-01T21:00:39.989Z,100.00
2022-11-01T21:05:45.897Z,100.00
2022-11-01T21:10:58.036Z,100.00
2022-11-01T21:16:05.926Z,100.00
2022-11-01T21:21:47.090Z,100.00
2022-11-01T21:26:56.121Z,100.00
2022-11-01T21:32:06.143Z,100.00
2022-11-01T21:37:12.045Z,100.00
2022-11-01T21:42:33.980Z,100.00
2022-11-01T21:47:45.580Z,100.00
2022-11-01T21:52:51.457Z,100.00
2022-11-01T21:57:59.005Z,100.00
2022-11-01T22:03:04.177Z,100.00
2022-11-01T22:08:09.096Z,100.00
2022-11-01T22:13:16.469Z,100.00
2022-11-01T22:18:25.147Z,100.00
2022-11-01T22:23:30.449Z,100.00
2022-11-01T22:28:38.242Z,100.00
2022-11-01T22:33:44.934Z,100.00
2022-11-01T22:38:52.430Z,100.00
2022-11-01T22:44:02.312Z,100.00
2022-11-01T22:49:16.859Z,100.00
2022-11-01T22:54:32.058Z,100.00
2022-11-01T22:59:44.273Z,100.00
2022-11-01T23:04:49.246Z,100.00
2022-11-01T23:10:05.134Z,100.00
2022-11-01T23:15:25.990Z,100.00
2022-11-01T23:20:31.610Z,100.00
2022-11-01T23:25:36.407Z,100.00
2022-11-01T23:30:46.038Z,100.00
2022-11-01T23:35:54.866Z,100.00
2022-11-01T23:41:00.932Z,100.00
2022-11-01T23:46:09.292Z,100.00
2022-11-01T23:51:18.583Z,100.00
2022-11-01T23:56:24.486Z,100.00
